Time;durP1;ratioP1;P1;durP2;ratioP2;P2;SDS_P1;SDS_P2;PMS_P1;PMS_P2;Temp;Humidity;BMP_temperature;BMP_pressure;BME280_temperature;BME280_humidity;BME280_pressure;Samples;Min_cycle;Max_cycle;Signal;HPM_P1;HPM_P2
2023/06/19 00:06:12;;;;;;;11.77;7.50;;;23.40;54.60;;;;;;20899669;28;20358;-60
2023/06/19 00:16:13;;;;;;;9.10;7.73;;;23.30;54.60;;;;;;20918504;28;20242;-64
2023/06/19 00:26:15;;;;;;;10.00;7.60;;;23.40;55.30;;;;;;20918148;28;20243;-64
2023/06/19 00:36:20;;;;;;;7.77;6.97;;;23.30;54.80;;;;;;20917030;28;20647;-68
2023/06/19 00:46:21;;;;;;;12.33;7.30;;;23.20;55.30;;;;;;20916765;28;20774;-63
2023/06/19 00:56:23;;;;;;;8.07;7.23;;;23.10;55.70;;;;;;20915715;28;20258;-62
2023/06/19 01:06:37;;;;;;;11.97;8.00;;;22.90;56.00;;;;;;20951055;28;20711;-63
2023/06/19 01:16:40;;;;;;;11.67;8.43;;;22.80;56.20;;;;;;20995319;28;20237;-63
2023/06/19 01:26:45;;;;;;;10.90;8.03;;;22.80;56.40;;;;;;20996328;28;20241;-60
2023/06/19 01:36:49;;;;;;;10.63;7.70;;;22.80;56.30;;;;;;20930908;28;20609;-62
2023/06/19 01:46:53;;;;;;;10.93;8.80;;;22.60;56.40;;;;;;20912173;28;20285;-60
2023/06/19 01:56:57;;;;;;;11.43;8.27;;;22.30;56.40;;;;;;20912169;28;20254;-60
2023/06/19 02:06:59;;;;;;;12.73;8.50;;;22.30;57.00;;;;;;20960200;28;20234;-60
2023/06/19 02:17:00;;;;;;;12.33;8.30;;;22.20;57.30;;;;;;21010353;28;20314;-59
2023/06/19 02:27:02;;;;;;;9.60;8.33;;;22.00;57.90;;;;;;21010091;28;20266;-60
2023/06/19 02:37:04;;;;;;;10.37;8.20;;;21.80;58.40;;;;;;20942329;28;20722;-59
2023/06/19 02:47:06;;;;;;;10.00;8.30;;;21.70;58.70;;;;;;20924493;28;20235;-62
2023/06/19 02:57:09;;;;;;;13.33;8.37;;;21.60;58.80;;;;;;20925191;28;20662;-67
2023/06/19 03:07:13;;;;;;;11.20;9.00;;;21.60;59.50;;;;;;20929541;28;20603;-65
2023/06/19 03:17:15;;;;;;;13.53;8.70;;;21.40;60.20;;;;;;20868962;28;20286;-59
2023/06/19 03:27:17;;;;;;;12.53;9.03;;;21.50;60.00;;;;;;20841717;28;20592;-65
2023/06/19 03:37:19;;;;;;;13.50;8.67;;;21.60;59.90;;;;;;20908022;28;20246;-66
2023/06/19 03:47:21;;;;;;;11.37;8.67;;;21.70;59.00;;;;;;20920712;28;20326;-67
2023/06/19 03:57:23;;;;;;;10.17;8.90;;;21.80;58.60;;;;;;20908782;28;20243;-68
2023/06/19 04:07:28;;;;;;;10.40;8.83;;;21.80;58.90;;;;;;20947459;28;20250;-59
2023/06/19 04:17:29;;;;;;;10.17;8.57;;;21.90;58.40;;;;;;21001093;28;20352;-62
2023/06/19 04:27:31;;;;;;;14.90;8.60;;;21.80;59.00;;;;;;21000389;28;20253;-62
2023/06/19 04:46:08;;;;;;;13.23;9.50;;;21.80;59.50;;;;;;20984380;28;20565;-62
2023/06/19 04:56:09;;;;;;;11.03;8.23;;;21.90;60.50;;;;;;20983289;28;20612;-60
2023/06/19 05:06:11;;;;;;;24.77;9.30;;;22.00;60.70;;;;;;20982536;28;20213;-59
2023/06/19 05:16:16;;;;;;;14.20;8.57;;;22.00;60.70;;;;;;20982155;28;20634;-60
2023/06/19 05:26:18;;;;;;;14.93;9.23;;;22.20;59.80;;;;;;20981066;28;20752;-60
2023/06/19 05:36:20;;;;;;;21.67;9.30;;;22.30;60.40;;;;;;20979510;28;20202;-61
2023/06/19 05:46:22;;;;;;;14.80;8.90;;;22.50;60.30;;;;;;20978374;28;20217;-65
2023/06/19 05:56:23;;;;;;;14.77;8.67;;;22.60;60.20;;;;;;20929514;28;20208;-65
2023/06/19 06:06:25;;;;;;;12.83;8.07;;;22.90;60.30;;;;;;20926259;28;20227;-65
2023/06/19 06:16:27;;;;;;;17.33;8.27;;;23.10;60.50;;;;;;20922384;28;20258;-65
2023/06/19 06:26:29;;;;;;;17.37;7.90;;;23.50;60.30;;;;;;20921266;28;20294;-69
2023/06/19 06:36:31;;;;;;;18.33;7.23;;;23.70;60.30;;;;;;20919324;28;20235;-62
2023/06/19 06:46:38;;;;;;;15.80;6.70;;;23.90;60.60;;;;;;20892881;28;20549;-62
2023/06/19 06:56:40;;;;;;;11.20;5.60;;;24.10;60.90;;;;;;20836739;28;20232;-64
2023/06/19 07:06:41;;;;;;;12.73;6.40;;;24.30;61.20;;;;;;20873274;28;20612;-62
2023/06/19 07:16:45;;;;;;;9.77;5.60;;;24.40;61.50;;;;;;20916863;28;20278;-69
2023/06/19 07:26:47;;;;;;;10.23;4.90;;;24.60;61.80;;;;;;20916405;28;20207;-68
2023/06/19 07:36:48;;;;;;;7.57;5.57;;;24.80;61.80;;;;;;20915262;28;20238;-67
2023/06/19 07:46:50;;;;;;;4.87;4.37;;;24.90;62.10;;;;;;20904735;28;20208;-62
2023/06/19 07:56:52;;;;;;;6.57;4.90;;;24.90;62.90;;;;;;20876427;28;20600;-62
2023/06/19 08:06:54;;;;;;;8.90;4.60;;;25.20;62.80;;;;;;20886400;28;20303;-61
2023/06/19 08:16:56;;;;;;;4.83;4.30;;;25.30;63.30;;;;;;20912489;28;20327;-62
2023/06/19 08:26:58;;;;;;;6.20;4.60;;;25.50;63.00;;;;;;20913126;28;20607;-61
2023/06/19 08:37:00;;;;;;;7.27;4.93;;;25.70;62.80;;;;;;20912300;28;20234;-63
2023/06/19 08:47:03;;;;;;;6.43;4.83;;;26.00;62.90;;;;;;20915750;28;20640;-71
2023/06/19 08:57:06;;;;;;;5.30;4.57;;;26.30;62.30;;;;;;20914190;28;20228;-67
2023/06/19 09:07:08;;;;;;;9.87;4.40;;;26.70;62.10;;;;;;20910327;28;20230;-62
2023/06/19 09:17:13;;;;;;;7.13;4.50;;;26.60;61.70;;;;;;20909620;28;20236;-62
2023/06/19 09:27:17;;;;;;;5.73;4.60;;;26.60;61.90;;;;;;20916920;28;20286;-66
2023/06/19 09:37:30;;;;;;;8.23;4.73;;;26.90;61.60;;;;;;20906593;28;20239;-63
2023/06/19 09:47:39;;;;;;;5.07;4.57;;;26.90;61.80;;;;;;20849335;28;20208;-67
2023/06/19 09:57:43;;;;;;;7.47;4.70;;;27.00;62.00;;;;;;20841304;28;20225;-62
2023/06/19 10:07:46;;;;;;;7.93;4.50;;;27.00;62.10;;;;;;20887287;28;20350;-62
2023/06/19 10:17:51;;;;;;;7.43;5.70;;;27.30;61.50;;;;;;20922029;28;20326;-61
2023/06/19 10:27:54;;;;;;;5.40;4.90;;;27.40;61.60;;;;;;20921788;28;20210;-61
2023/06/19 10:37:56;;;;;;;5.60;5.10;;;27.40;62.30;;;;;;20919776;28;20702;-73
2023/06/19 10:48:01;;;;;;;11.40;5.20;;;27.80;62.30;;;;;;20919710;28;20578;-68
2023/06/19 10:58:02;;;;;;;9.30;5.03;;;28.00;62.20;;;;;;20919843;28;20721;-71
2023/06/19 11:08:04;;;;;;;6.13;5.27;;;28.00;62.40;;;;;;20917632;28;20655;-73
2023/06/19 11:18:06;;;;;;;6.00;5.43;;;28.40;61.80;;;;;;20917369;28;20717;-71
2023/06/19 11:28:22;;;;;;;9.77;5.17;;;28.20;61.40;;;;;;20918356;28;20216;-72
2023/06/19 11:38:25;;;;;;;5.97;5.20;;;28.30;61.30;;;;;;20895716;28;20330;-67
2023/06/19 11:48:27;;;;;;;5.30;4.90;;;28.40;61.00;;;;;;20881441;28;20208;-78
2023/06/19 11:58:29;;;;;;;5.95;5.43;;;28.50;60.70;;;;;;20865050;28;20250;-65
2023/06/19 12:08:33;;;;;;;5.82;5.20;;;28.80;60.20;;;;;;20865338;28;20209;-70
2023/06/19 12:18:35;;;;;;;7.40;5.05;;;29.20;59.30;;;;;;20864390;28;20231;-66
2023/06/19 12:28:37;;;;;;;9.02;6.00;;;29.40;58.20;;;;;;20852725;28;20205;-60
2023/06/19 12:38:39;;;;;;;5.53;5.03;;;29.40;57.50;;;;;;20907361;28;20322;-62
2023/06/19 12:48:41;;;;;;;6.22;4.75;;;29.80;56.90;;;;;;20911365;28;20231;-66
2023/06/19 12:58:43;;;;;;;5.90;5.30;;;29.70;56.70;;;;;;20911825;28;20239;-64
2023/06/19 13:08:45;;;;;;;5.38;4.88;;;29.60;57.10;;;;;;20927118;28;20307;-65
2023/06/19 13:18:47;;;;;;;5.38;4.95;;;29.70;56.60;;;;;;20924798;28;20243;-64
2023/06/19 13:28:49;;;;;;;5.13;4.70;;;29.30;57.10;;;;;;20924783;28;20203;-69
2023/06/19 13:38:51;;;;;;;22.75;5.70;;;29.40;57.40;;;;;;20922361;28;20243;-66
2023/06/19 13:48:53;;;;;;;6.32;5.72;;;29.30;57.20;;;;;;20924025;28;20656;-63
2023/06/19 13:58:55;;;;;;;6.00;4.78;;;29.30;57.10;;;;;;20923690;28;20323;-73
2023/06/19 14:08:57;;;;;;;10.15;4.82;;;29.40;57.30;;;;;;20910989;28;20211;-62
2023/06/19 14:18:59;;;;;;;5.93;5.00;;;29.40;57.20;;;;;;20885676;28;20698;-62
2023/06/19 14:29:00;;;;;;;6.50;5.10;;;29.60;55.70;;;;;;20876380;28;20205;-63
2023/06/19 14:39:02;;;;;;;6.32;4.78;;;29.90;55.80;;;;;;20837372;28;20240;-69
2023/06/19 14:49:06;;;;;;;6.75;6.15;;;30.70;54.60;;;;;;20904936;28;20196;-65
2023/06/19 14:59:07;;;;;;;6.65;4.80;;;30.60;54.30;;;;;;20919405;28;20235;-65
2023/06/19 15:09:09;;;;;;;5.63;5.03;;;31.10;53.50;;;;;;20918461;28;20230;-63
2023/06/19 15:19:11;;;;;;;7.65;4.40;;;31.40;52.70;;;;;;20882335;28;20822;-77
2023/06/19 15:29:13;;;;;;;4.90;3.90;;;31.50;52.10;;;;;;20834046;28;20211;-62
2023/06/19 15:39:15;;;;;;;4.13;3.75;;;31.40;51.60;;;;;;20836374;28;20255;-67
2023/06/19 15:49:17;;;;;;;5.57;3.70;;;31.70;50.90;;;;;;20832727;28;20742;-64
2023/06/19 15:59:19;;;;;;;4.20;3.80;;;33.80;47.80;;;;;;20831891;28;20618;-63
2023/06/19 16:09:21;;;;;;;4.70;3.92;;;34.30;45.80;;;;;;20830660;28;20245;-64
2023/06/19 16:19:24;;;;;;;3.88;3.58;;;35.50;44.30;;;;;;20866816;28;20235;-67
2023/06/19 16:29:27;;;;;;;4.32;3.50;;;38.10;41.00;;;;;;20912451;28;20204;-67
2023/06/19 16:39:29;;;;;;;4.18;3.88;;;37.10;40.60;;;;;;20911999;28;20601;-69
2023/06/19 16:49:31;;;;;;;4.72;3.72;;;34.20;43.70;;;;;;20910365;28;20287;-60
2023/06/19 16:59:32;;;;;;;4.40;3.95;;;32.50;45.80;;;;;;20850333;28;20232;-71
2023/06/19 17:09:34;;;;;;;6.47;3.65;;;31.50;47.40;;;;;;20835480;28;20209;-67
2023/06/19 17:19:36;;;;;;;5.03;4.07;;;30.80;48.70;;;;;;20865275;28;20232;-67
2023/06/19 17:29:38;;;;;;;4.68;4.28;;;30.20;50.00;;;;;;20909792;28;20212;-72
2023/06/19 17:39:40;;;;;;;5.05;4.55;;;29.80;50.90;;;;;;20909196;28;20240;-62
2023/06/19 17:49:42;;;;;;;4.47;4.07;;;30.10;50.90;;;;;;20917157;28;20239;-71
2023/06/19 17:59:44;;;;;;;4.75;4.20;;;29.60;52.00;;;;;;20922983;28;20663;-70
2023/06/19 18:09:47;;;;;;;3.83;3.53;;;29.10;53.10;;;;;;20922300;28;20682;-66
2023/06/19 18:19:49;;;;;;;6.40;3.30;;;28.60;53.60;;;;;;20888372;28;20258;-66
2023/06/19 18:29:51;;;;;;;6.90;3.13;;;28.30;53.70;;;;;;20845076;28;20200;-61
2023/06/19 18:39:52;;;;;;;6.13;3.40;;;28.10;53.70;;;;;;20836813;28;20244;-65
2023/06/19 18:49:54;;;;;;;4.67;3.13;;;27.90;53.80;;;;;;20836090;28;20244;-63
2023/06/19 18:59:56;;;;;;;5.43;3.30;;;27.70;53.90;;;;;;20873298;28;20290;-77
2023/06/19 19:09:58;;;;;;;7.00;3.20;;;27.60;54.40;;;;;;20863456;28;20243;-61
2023/06/19 19:20:06;;;;;;;3.80;3.30;;;27.50;54.80;;;;;;20880589;28;20246;-66
2023/06/19 19:30:08;;;;;;;4.80;3.20;;;27.30;54.90;;;;;;20868055;28;20613;-67
2023/06/19 19:40:11;;;;;;;5.97;3.47;;;27.10;55.50;;;;;;20845964;28;20271;-65
2023/06/19 19:50:12;;;;;;;4.73;3.63;;;26.80;56.20;;;;;;20852930;28;20707;-62
2023/06/19 20:00:15;;;;;;;8.20;4.00;;;26.60;57.00;;;;;;20877925;28;20790;-62
2023/06/19 20:10:17;;;;;;;7.13;4.03;;;26.50;58.10;;;;;;20862106;28;20314;-63
2023/06/19 20:20:19;;;;;;;4.73;4.03;;;26.30;59.00;;;;;;20876409;28;20234;-63
2023/06/19 20:30:20;;;;;;;4.87;4.20;;;26.10;59.90;;;;;;20877286;28;20196;-64
2023/06/19 20:40:24;;;;;;;4.97;4.40;;;25.90;60.80;;;;;;20860967;28;20243;-68
2023/06/19 20:50:26;;;;;;;6.00;4.60;;;25.80;61.90;;;;;;20870212;28;20236;-69
2023/06/19 21:00:29;;;;;;;7.73;5.00;;;25.80;61.60;;;;;;20861680;28;20268;-66
2023/06/19 21:10:30;;;;;;;9.43;4.57;;;25.80;62.40;;;;;;20865341;28;20213;-61
2023/06/19 21:20:32;;;;;;;6.13;4.70;;;25.70;62.70;;;;;;20869547;28;20685;-67
2023/06/19 21:30:34;;;;;;;5.77;5.10;;;25.70;64.20;;;;;;20889834;28;20204;-64
2023/06/19 21:40:36;;;;;;;6.40;4.83;;;25.50;65.60;;;;;;20843919;28;20343;-61
2023/06/19 21:50:37;;;;;;;8.40;4.50;;;25.40;65.70;;;;;;20842297;28;20209;-61
2023/06/19 22:00:39;;;;;;;8.30;4.47;;;25.30;66.50;;;;;;20841513;28;20662;-62
2023/06/19 22:10:41;;;;;;;7.57;5.07;;;25.00;67.30;;;;;;20841429;28;20664;-63
2023/06/19 22:20:43;;;;;;;7.23;4.73;;;24.90;68.30;;;;;;20840514;28;20244;-61
2023/06/19 22:30:44;;;;;;;6.17;4.77;;;24.70;69.30;;;;;;20839428;28;20240;-64
2023/06/19 22:40:46;;;;;;;6.57;5.30;;;24.60;70.50;;;;;;20839773;28;20343;-60
2023/06/19 22:50:48;;;;;;;7.03;5.07;;;24.40;72.00;;;;;;20838642;28;20209;-60
2023/06/19 23:00:49;;;;;;;6.73;5.10;;;24.20;73.60;;;;;;20837341;28;20721;-67
2023/06/19 23:10:51;;;;;;;6.03;5.13;;;24.00;75.10;;;;;;20837035;28;20232;-64
2023/06/19 23:20:53;;;;;;;6.83;5.50;;;23.80;76.70;;;;;;20836256;28;20243;-61
2023/06/19 23:30:55;;;;;;;8.23;5.80;;;23.70;77.80;;;;;;20835545;28;20582;-62
2023/06/19 23:40:56;;;;;;;6.33;5.67;;;23.70;78.70;;;;;;20834005;28;20332;-60
2023/06/19 23:50:58;;;;;;;7.87;5.90;;;23.60;79.30;;;;;;20832435;28;20244;-64
